Time;durP1;ratioP1;P1;durP2;ratioP2;P2;SDS_P1;SDS_P2;PMS_P1;PMS_P2;Temp;Humidity;BMP_temperature;BMP_pressure;BME280_temperature;BME280_humidity;BME280_pressure;Samples;Min_cycle;Max_cycle;Signal;HPM_P1;HPM_P2
2022/06/04 00:00:14;;;;;;;3.55;2.38;;;;;;;15.15;58.88;101735.75;4968042;28;20116;-76
2022/06/04 00:02:41;;;;;;;5.57;2.40;;;;;;;15.12;59.02;101736.88;4998066;28;20093;-74
2022/06/04 00:05:08;;;;;;;2.75;2.17;;;;;;;15.09;59.03;101734.38;5001883;28;20104;-73
2022/06/04 00:07:34;;;;;;;4.00;2.63;;;;;;;15.04;59.13;101731.97;5007327;28;20038;-74
2022/06/04 00:15:32;;;;;;;3.30;2.20;;;;;;;14.98;58.76;101712.41;4988852;28;20510;-75
2022/06/04 00:17:59;;;;;;;4.07;2.38;;;;;;;14.96;60.01;101717.13;5004747;28;20045;-73
2022/06/04 00:20:26;;;;;;;4.75;2.50;;;;;;;14.91;59.22;101722.94;5001867;28;20034;-73
2022/06/04 00:23:00;;;;;;;5.47;2.42;;;;;;;14.94;58.37;101721.84;5007244;28;20034;-73
2022/06/04 00:25:26;;;;;;;4.15;2.22;;;;;;;14.91;59.09;101720.22;4991000;28;20038;-74
2022/06/04 00:27:51;;;;;;;2.97;2.17;;;;;;;14.92;58.71;101726.56;5005891;28;20041;-73
2022/06/04 00:30:17;;;;;;;3.17;2.00;;;;;;;14.91;59.10;101731.16;4997413;28;20504;-70
2022/06/04 00:32:42;;;;;;;4.65;2.40;;;;;;;14.90;58.09;101740.41;4985839;28;20038;-72
2022/06/04 00:35:08;;;;;;;5.60;2.20;;;;;;;14.88;58.30;101739.66;5001444;28;20464;-73
2022/06/04 00:37:35;;;;;;;2.90;2.30;;;;;;;14.88;58.61;101736.03;5005552;28;20052;-74
2022/06/04 00:40:01;;;;;;;6.30;2.50;;;;;;;14.86;59.04;101743.47;5003507;28;20119;-73
2022/06/04 00:42:26;;;;;;;2.97;1.98;;;;;;;14.84;58.33;101740.88;5006866;28;20041;-72
2022/06/04 00:45:29;;;;;;;4.55;2.53;;;;;;;14.87;57.84;101737.00;5005721;28;20030;-74
2022/06/04 00:47:54;;;;;;;3.63;2.28;;;;;;;14.79;58.43;101732.13;4996669;28;20042;-72
2022/06/04 00:50:21;;;;;;;4.10;2.40;;;;;;;14.73;58.73;101722.47;5006003;28;20497;-73
2022/06/04 00:52:49;;;;;;;5.88;2.90;;;;;;;14.70;58.72;101725.47;5007189;28;20457;-71
2022/06/04 00:55:16;;;;;;;6.28;2.30;;;;;;;14.68;59.41;101741.13;5002201;28;20482;-75
2022/06/04 00:57:59;;;;;;;3.08;2.10;;;;;;;14.66;58.59;101748.59;4989047;28;20088;-74
2022/06/04 01:00:41;;;;;;;;;;;;;;;14.72;57.49;101752.75;4996304;28;20474;-73
2022/06/04 01:03:11;;;;;;;2.55;2.20;;;;;;;14.65;58.57;101759.69;4990035;28;19928;-71
2022/06/04 01:06:06;;;;;;;2.50;2.30;;;;;;;14.57;58.29;101748.44;4988141;28;20037;-73
2022/06/04 01:09:16;;;;;;;3.75;2.35;;;;;;;14.53;58.18;101762.34;5006757;28;20124;-73
2022/06/04 01:12:14;;;;;;;3.78;2.15;;;;;;;14.53;58.74;101784.25;4999843;28;20042;-74
2022/06/04 01:15:02;;;;;;;5.20;2.20;;;;;;;14.55;58.74;101797.84;4980573;28;20497;-74
2022/06/04 01:17:37;;;;;;;4.15;2.80;;;;;;;14.51;57.99;101788.97;5006484;28;20570;-72
2022/06/04 01:20:14;;;;;;;4.50;2.25;;;;;;;14.45;58.75;101785.75;5005972;28;20034;-74
2022/06/04 01:23:04;;;;;;;3.13;2.17;;;;;;;14.45;58.22;101781.16;5010371;28;20030;-74
2022/06/04 01:25:46;;;;;;;2.70;2.38;;;;;;;14.36;58.75;101776.41;5003005;28;20445;-74
2022/06/04 01:28:16;;;;;;;3.60;2.45;;;;;;;14.30;58.92;101785.91;4992011;28;20045;-73
2022/06/04 01:30:49;;;;;;;3.53;2.28;;;;;;;14.28;59.17;101789.75;5010003;28;20485;-74
2022/06/04 01:33:20;;;;;;;2.97;2.65;;;;;;;14.24;58.90;101791.84;5002223;28;20033;-75
2022/06/04 01:36:01;;;;;;;2.78;2.58;;;;;;;14.25;58.46;101781.75;4971152;28;20033;-72
2022/06/04 01:38:33;;;;;;;3.85;2.55;;;;;;;14.20;59.25;101790.31;5010020;28;20034;-74
2022/06/04 01:41:03;;;;;;;4.10;2.20;;;;;;;14.20;59.55;101797.66;4995277;28;20505;-74
2022/06/04 01:43:58;;;;;;;4.07;2.63;;;;;;;14.16;58.64;101787.91;5009320;28;20478;-73
2022/06/04 01:46:39;;;;;;;6.40;2.95;;;;;;;14.12;59.14;101791.84;4995644;28;20050;-74
2022/06/04 01:49:13;;;;;;;7.53;2.63;;;;;;;14.08;59.08;101802.13;4991994;28;20064;-74
2022/06/04 01:51:40;;;;;;;3.78;2.67;;;;;;;14.04;59.53;101801.50;5008685;28;20038;-73
2022/06/04 01:54:14;;;;;;;5.22;2.50;;;;;;;14.07;59.95;101816.81;5009655;28;20056;-74
2022/06/04 01:56:46;;;;;;;3.42;2.30;;;;;;;14.09;59.61;101822.19;5007728;28;20045;-74
2022/06/04 01:59:18;;;;;;;5.43;2.60;;;;;;;14.04;59.86;101814.31;4991275;28;20070;-74
2022/06/04 02:01:46;;;;;;;4.28;2.42;;;;;;;14.02;60.08;101817.13;4998483;28;20036;-72
2022/06/04 02:04:19;;;;;;;6.82;3.30;;;;;;;13.98;60.25;101814.72;4996808;28;20085;-73
2022/06/04 02:09:52;;;;;;;4.35;2.58;;;;;;;13.91;60.22;101811.56;4979706;28;20042;-68
2022/06/04 02:12:19;;;;;;;2.90;2.42;;;;;;;13.85;60.31;101811.09;4995671;28;20037;-73
2022/06/04 02:14:45;;;;;;;10.30;2.97;;;;;;;13.79;61.03;101806.94;5008905;28;20041;-72
2022/06/04 02:17:16;;;;;;;4.85;2.92;;;;;;;13.74;60.63;101807.28;4999629;28;20050;-76
2022/06/04 02:19:42;;;;;;;6.95;2.83;;;;;;;13.68;60.70;101802.25;4993615;28;20125;-74
2022/06/04 02:22:09;;;;;;;5.70;2.83;;;;;;;13.69;61.44;101811.31;5007522;28;20096;-73
2022/06/04 02:24:35;;;;;;;4.28;2.95;;;;;;;13.69;61.94;101809.47;5000284;28;20049;-74
2022/06/04 02:27:01;;;;;;;4.43;2.47;;;;;;;13.69;60.94;101812.19;4998168;28;20343;-75
2022/06/04 02:29:27;;;;;;;6.03;2.72;;;;;;;13.73;61.38;101821.94;5008256;28;20049;-75
2022/06/04 02:32:10;;;;;;;4.20;2.72;;;;;;;13.65;61.38;101816.13;5007509;28;20543;-73
2022/06/04 02:34:45;;;;;;;4.72;2.90;;;;;;;13.64;61.32;101811.63;4981729;28;20042;-70
2022/06/04 02:37:18;;;;;;;5.00;2.85;;;;;;;13.63;61.70;101811.75;5006065;28;20437;-75
2022/06/04 02:40:07;;;;;;;5.07;3.13;;;;;;;13.63;60.97;101817.22;4986488;28;20027;-71
2022/06/04 02:42:54;;;;;;;2.90;2.60;;;;;;;13.56;62.25;101800.34;5006538;28;20428;-73
2022/06/04 02:45:33;;;;;;;6.38;2.97;;;;;;;13.60;61.34;101790.97;4983535;28;20497;-73
2022/06/04 02:48:06;;;;;;;4.47;2.80;;;;;;;13.59;62.62;101794.69;4979087;28;20040;-71
2022/06/04 02:50:41;;;;;;;5.95;3.20;;;;;;;13.53;62.13;101789.66;5002063;28;20046;-76
2022/06/04 02:53:09;;;;;;;6.47;2.88;;;;;;;13.51;62.68;101777.94;5000526;28;20034;-73
2022/06/04 02:55:47;;;;;;;7.57;3.05;;;;;;;13.49;62.03;101768.97;4996469;28;20518;-75
2022/06/04 02:58:16;;;;;;;5.18;3.00;;;;;;;13.42;62.16;101763.03;4996002;28;20997;-73
2022/06/04 03:00:42;;;;;;;3.67;2.90;;;;;;;13.38;62.43;101755.16;5007635;28;20042;-74
2022/06/04 03:03:13;;;;;;;10.10;3.42;;;;;;;13.37;62.66;101750.69;5000438;28;20112;-72
2022/06/04 03:05:57;;;;;;;11.07;3.28;;;;;;;13.34;62.35;101751.78;5007891;28;20063;-75
2022/06/04 03:08:23;;;;;;;5.93;3.22;;;;;;;13.27;63.08;101751.31;5003484;28;20074;-71
2022/06/04 03:10:49;;;;;;;6.80;3.20;;;;;;;13.23;63.66;101746.19;4989835;28;20409;-73
2022/06/04 03:13:14;;;;;;;9.52;3.67;;;;;;;13.21;63.75;101742.66;4999482;28;20053;-75
2022/06/04 03:15:40;;;;;;;4.85;3.30;;;;;;;13.22;63.93;101742.56;5003790;28;20112;-74
2022/06/04 03:18:05;;;;;;;7.13;4.10;;;;;;;13.18;63.84;101751.91;4989209;28;20037;-75
2022/06/04 03:20:31;;;;;;;6.40;3.38;;;;;;;13.16;65.08;101742.09;5005018;28;20168;-74
2022/06/04 03:22:56;;;;;;;5.00;3.80;;;;;;;13.17;64.67;101743.84;5008161;28;20034;-74
2022/06/04 03:25:22;;;;;;;7.55;3.72;;;;;;;13.19;64.76;101750.06;4986515;28;20073;-76
2022/06/04 03:27:48;;;;;;;5.75;3.80;;;;;;;13.19;64.17;101733.66;5008195;28;20132;-75
2022/06/04 03:30:15;;;;;;;4.47;3.42;;;;;;;13.14;64.82;101738.56;4995455;28;20333;-76
2022/06/04 03:32:41;;;;;;;7.35;4.28;;;;;;;13.13;64.35;101737.72;4982802;28;20049;-74
2022/06/04 03:35:07;;;;;;;6.10;3.80;;;;;;;13.15;64.74;101748.53;4987604;28;20491;-74
2022/06/04 03:37:34;;;;;;;5.05;3.63;;;;;;;13.12;64.91;101749.63;5006879;28;20802;-73
2022/06/04 03:39:59;;;;;;;5.47;3.45;;;;;;;13.14;65.32;101752.25;4985672;28;20106;-74
2022/06/04 03:42:25;;;;;;;7.60;4.40;;;;;;;13.17;66.71;101761.09;5003836;28;20072;-73
2022/06/04 03:44:50;;;;;;;7.13;3.85;;;;;;;13.16;65.99;101762.09;5005490;28;20448;-72
2022/06/04 03:47:17;;;;;;;5.25;3.78;;;;;;;13.19;65.95;101763.72;5005627;28;20037;-74
2022/06/04 03:49:43;;;;;;;7.30;4.80;;;;;;;13.15;65.56;101764.91;4988842;28;20045;-71
2022/06/04 03:52:11;;;;;;;8.85;4.72;;;;;;;13.15;66.26;101767.66;4989850;28;20022;-73
2022/06/04 03:54:56;;;;;;;5.75;4.15;;;;;;;13.09;66.38;101768.94;4984886;28;20049;-75
2022/06/04 03:57:48;;;;;;;6.22;3.83;;;;;;;13.07;65.96;101770.91;5007381;28;20041;-75
2022/06/04 04:00:27;;;;;;;7.50;4.57;;;;;;;13.03;65.73;101767.50;4993548;28;20046;-75
2022/06/04 04:02:59;;;;;;;7.47;4.63;;;;;;;12.95;66.43;101778.06;4999228;28;20104;-71
2022/06/04 04:05:28;;;;;;;8.13;4.22;;;;;;;12.88;66.82;101784.06;5004561;28;20068;-74
2022/06/04 04:07:54;;;;;;;6.30;4.25;;;;;;;12.84;67.37;101777.06;4996884;28;20089;-74
2022/06/04 04:10:20;;;;;;;5.38;3.97;;;;;;;12.86;67.61;101784.16;4999395;28;20026;-74
2022/06/04 04:12:45;;;;;;;10.95;5.03;;;;;;;12.87;67.51;101777.75;5007230;28;20117;-73
2022/06/04 04:15:13;;;;;;;8.45;5.32;;;;;;;12.85;68.42;101782.41;4997861;28;20066;-74
2022/06/04 04:17:39;;;;;;;9.73;4.90;;;;;;;12.83;67.68;101776.19;5003841;28;20037;-74
2022/06/04 04:20:14;;;;;;;7.20;4.82;;;;;;;12.89;67.14;101796.75;4998482;28;20037;-76
2022/06/04 04:22:41;;;;;;;7.57;5.00;;;;;;;12.81;68.27;101801.84;5006530;28;20096;-73
2022/06/04 04:25:07;;;;;;;11.32;4.57;;;;;;;12.77;69.26;101796.56;4988070;28;20210;-73
2022/06/04 04:27:32;;;;;;;8.98;4.22;;;;;;;12.74;68.27;101791.34;4984581;28;20414;-74
2022/06/04 04:29:58;;;;;;;10.50;5.47;;;;;;;12.75;68.42;101787.63;5006132;28;20129;-69
2022/06/04 04:32:23;;;;;;;8.43;4.30;;;;;;;12.74;69.54;101785.00;4995859;28;20046;-75
2022/06/04 04:34:48;;;;;;;9.90;5.55;;;;;;;12.77;68.66;101793.84;4984947;28;20025;-75
2022/06/04 04:37:14;;;;;;;10.85;5.30;;;;;;;12.81;70.74;101794.50;4985848;28;20039;-74
2022/06/04 04:39:39;;;;;;;10.70;4.60;;;;;;;12.81;69.18;101799.09;5001824;28;20042;-73
2022/06/04 04:42:05;;;;;;;8.43;5.18;;;;;;;12.85;69.07;101808.84;5007098;28;20029;-73
2022/06/04 04:44:31;;;;;;;12.45;5.50;;;;;;;12.88;69.92;101805.94;5006471;28;20034;-74
2022/06/04 04:46:56;;;;;;;11.25;6.20;;;;;;;12.88;68.51;101812.25;5005833;28;20034;-73
2022/06/04 04:49:22;;;;;;;7.25;4.90;;;;;;;12.87;69.65;101815.97;4972636;28;20060;-74
2022/06/04 04:51:47;;;;;;;11.55;5.10;;;;;;;12.89;68.90;101813.13;4988837;28;20041;-74
2022/06/04 04:54:13;;;;;;;8.32;5.28;;;;;;;12.88;69.55;101822.31;5001748;28;20100;-74
2022/06/04 04:56:39;;;;;;;8.98;5.63;;;;;;;12.90;69.02;101826.69;5006729;28;20481;-74
2022/06/04 04:59:05;;;;;;;7.55;5.32;;;;;;;12.98;69.76;101823.44;4991284;28;20103;-73
2022/06/04 05:01:30;;;;;;;10.45;5.78;;;;;;;13.06;69.10;101828.41;5007367;28;20073;-73
2022/06/04 05:03:56;;;;;;;9.57;5.28;;;;;;;13.06;69.09;101833.88;4989113;28;20065;-73
2022/06/04 05:06:24;;;;;;;8.23;5.47;;;;;;;13.01;70.43;101832.31;4991171;28;20522;-70
2022/06/04 05:08:53;;;;;;;9.02;5.07;;;;;;;13.03;68.84;101822.16;5006938;28;20273;-74
2022/06/04 05:11:21;;;;;;;10.90;6.63;;;;;;;13.07;70.16;101821.97;4985657;28;20052;-73
2022/06/04 05:13:49;;;;;;;8.75;5.63;;;;;;;13.08;69.84;101824.56;5008556;28;20362;-73
2022/06/04 05:16:19;;;;;;;14.82;5.32;;;;;;;13.10;69.04;101827.19;5009601;28;20401;-73
2022/06/04 05:18:45;;;;;;;9.57;4.68;;;;;;;13.01;69.72;101825.97;5003981;28;20049;-74
2022/06/04 05:21:19;;;;;;;12.68;5.68;;;;;;;13.06;69.64;101828.41;5000722;28;20047;-72
2022/06/04 05:23:45;;;;;;;11.70;5.30;;;;;;;13.09;69.89;101829.06;5009079;28;20040;-74
2022/06/04 05:26:10;;;;;;;6.85;4.90;;;;;;;13.25;69.47;101839.88;5006753;28;20104;-74
2022/06/04 05:28:35;;;;;;;8.27;4.88;;;;;;;13.40;69.11;101841.56;5004438;28;20040;-74
2022/06/04 05:31:01;;;;;;;8.50;6.00;;;;;;;13.41;69.02;101836.97;5008649;28;20479;-74
2022/06/04 05:33:26;;;;;;;9.43;5.97;;;;;;;13.33;69.19;101837.47;5002776;28;20038;-74
2022/06/04 05:35:52;;;;;;;11.43;6.22;;;;;;;13.30;69.75;101832.25;5008590;28;20064;-75
2022/06/04 05:38:17;;;;;;;11.30;5.38;;;;;;;13.32;69.85;101837.59;5008954;28;20030;-72
2022/06/04 05:40:43;;;;;;;10.43;5.22;;;;;;;13.46;69.01;101843.00;4990281;28;20044;-73
2022/06/04 05:43:08;;;;;;;9.70;6.15;;;;;;;13.57;68.87;101844.97;4990596;28;20105;-74
2022/06/04 05:45:33;;;;;;;9.90;5.45;;;;;;;13.68;69.06;101848.72;5008050;28;20029;-74
2022/06/04 05:48:00;;;;;;;9.40;5.72;;;;;;;13.67;69.01;101859.78;5006729;28;20065;-73
2022/06/04 05:50:25;;;;;;;9.38;6.88;;;;;;;13.60;68.59;101867.53;5005284;28;20069;-71
2022/06/04 05:52:51;;;;;;;13.82;6.45;;;;;;;13.59;68.78;101862.16;5008219;28;20497;-73
2022/06/04 05:55:16;;;;;;;11.68;5.75;;;;;;;13.58;69.48;101868.63;5006761;28;20034;-74
2022/06/04 05:57:42;;;;;;;11.32;5.70;;;;;;;13.56;69.90;101859.63;5008826;28;20041;-73
2022/06/04 06:00:08;;;;;;;8.00;5.72;;;;;;;13.56;70.29;101862.38;5006081;28;20107;-73
2022/06/04 06:02:37;;;;;;;9.35;6.13;;;;;;;13.57;70.10;101866.84;5006584;28;20038;-74
2022/06/04 06:05:03;;;;;;;6.18;5.47;;;;;;;13.67;70.27;101862.53;5004850;28;20781;-74
2022/06/04 06:07:29;;;;;;;8.10;5.88;;;;;;;13.78;68.55;101858.03;5007949;28;20054;-71
2022/06/04 06:09:55;;;;;;;11.30;6.45;;;;;;;13.76;69.20;101867.34;5005786;28;20425;-74
2022/06/04 06:12:20;;;;;;;10.02;6.03;;;;;;;13.75;68.54;101863.72;5008376;28;20052;-74
2022/06/04 06:14:46;;;;;;;9.43;5.90;;;;;;;13.79;70.13;101872.59;5007756;28;20041;-72
2022/06/04 06:17:11;;;;;;;11.32;6.45;;;;;;;13.90;69.17;101870.00;4986706;28;20030;-73
2022/06/04 06:19:37;;;;;;;13.80;6.20;;;;;;;14.02;68.77;101863.66;5006983;28;20091;-74
2022/06/04 06:22:03;;;;;;;10.10;6.60;;;;;;;14.06;70.14;101860.69;5006216;28;20808;-73
2022/06/04 06:24:28;;;;;;;11.98;6.47;;;;;;;14.04;68.68;101867.16;5003948;28;20040;-74
2022/06/04 06:26:57;;;;;;;11.15;6.35;;;;;;;13.99;69.23;101861.16;4990043;28;20034;-73
2022/06/04 06:29:29;;;;;;;13.23;6.43;;;;;;;14.03;68.25;101861.78;4989423;28;20125;-73
2022/06/04 06:31:56;;;;;;;14.23;6.68;;;;;;;14.10;69.02;101862.25;5007185;28;20467;-72
2022/06/04 06:34:23;;;;;;;10.30;6.03;;;;;;;14.08;68.58;101861.44;5003908;28;20061;-74
2022/06/04 06:36:48;;;;;;;14.32;6.70;;;;;;;14.24;68.71;101871.22;5007803;28;20084;-74
2022/06/04 06:39:14;;;;;;;14.00;7.32;;;;;;;14.46;68.41;101886.09;5008104;28;20021;-70
2022/06/04 06:41:40;;;;;;;13.82;7.05;;;;;;;14.49;67.55;101881.28;5004907;28;20389;-73
2022/06/04 06:44:06;;;;;;;15.15;6.80;;;;;;;14.58;67.82;101887.09;4971740;28;20045;-73
2022/06/04 06:46:41;;;;;;;11.02;6.72;;;;;;;14.71;67.53;101886.09;5006999;28;20065;-75
2022/06/04 06:49:19;;;;;;;11.23;7.07;;;;;;;14.75;67.66;101890.38;4999646;28;20033;-73
2022/06/04 06:51:51;;;;;;;9.02;6.68;;;;;;;14.66;67.29;101884.69;5006541;28;20541;-73
2022/06/04 06:54:19;;;;;;;14.23;7.07;;;;;;;14.60;66.36;101876.94;4988828;28;20389;-70
2022/06/04 06:56:46;;;;;;;13.32;6.72;;;;;;;14.61;68.41;101882.28;4989904;28;20433;-73
2022/06/04 06:59:12;;;;;;;13.13;7.00;;;;;;;14.77;67.09;101893.84;5007106;28;20445;-73
2022/06/04 07:01:38;;;;;;;14.02;7.28;;;;;;;14.80;65.81;101885.41;5001987;28;20128;-73
2022/06/04 07:04:04;;;;;;;9.10;6.20;;;;;;;14.90;65.90;101891.09;5003043;28;20037;-75
2022/06/04 07:06:41;;;;;;;10.90;6.53;;;;;;;14.89;65.85;101883.88;5003098;28;20061;-73
2022/06/04 07:09:11;;;;;;;14.90;7.28;;;;;;;14.87;66.43;101880.34;5003834;28;20065;-74
2022/06/04 07:11:36;;;;;;;12.75;6.68;;;;;;;15.02;66.26;101879.22;4988408;28;20672;-74
2022/06/04 07:14:02;;;;;;;11.20;6.72;;;;;;;15.21;66.25;101878.72;5001889;28;20038;-73
2022/06/04 07:16:28;;;;;;;14.13;7.18;;;;;;;15.43;65.23;101883.44;5004887;28;20161;-75
2022/06/04 07:18:53;;;;;;;14.30;7.18;;;;;;;15.46;64.19;101882.34;5000713;28;20033;-75
2022/06/04 07:21:19;;;;;;;12.02;6.28;;;;;;;15.52;64.58;101884.59;5006410;28;20534;-71
2022/06/04 07:23:45;;;;;;;13.80;6.93;;;;;;;15.53;63.76;101887.25;5006542;28;20137;-74
2022/06/04 07:26:12;;;;;;;11.13;6.70;;;;;;;15.56;63.73;101886.97;5003617;28;20037;-72
2022/06/04 07:28:38;;;;;;;13.95;7.32;;;;;;;15.62;62.95;101879.28;5002578;28;20034;-73
2022/06/04 07:31:07;;;;;;;12.70;6.40;;;;;;;15.73;62.52;101885.72;5005427;28;20037;-74
2022/06/04 07:33:33;;;;;;;11.77;6.65;;;;;;;15.75;63.00;101894.69;5002229;28;20026;-74
2022/06/04 07:35:59;;;;;;;13.07;6.95;;;;;;;16.00;64.14;101896.44;5005874;28;20179;-74
2022/06/04 07:38:24;;;;;;;10.82;7.30;;;;;;;16.16;64.04;101908.94;4987373;28;20033;-74
2022/06/04 07:40:50;;;;;;;11.98;7.32;;;;;;;16.05;61.83;101896.06;5003389;28;20025;-73
2022/06/04 07:43:15;;;;;;;15.13;7.78;;;;;;;15.95;62.78;101906.91;5005983;28;20036;-73
2022/06/04 07:45:41;;;;;;;12.18;7.28;;;;;;;15.97;61.71;101904.03;5002774;28;20029;-74
2022/06/04 07:48:07;;;;;;;12.02;6.88;;;;;;;16.05;64.09;101909.78;5003959;28;20042;-73
2022/06/04 07:50:34;;;;;;;11.27;6.72;;;;;;;16.02;62.06;101902.66;5002166;28;20517;-75
2022/06/04 07:53:01;;;;;;;13.05;7.25;;;;;;;15.87;62.83;101900.25;5002988;28;20382;-74
2022/06/04 07:55:27;;;;;;;13.27;6.80;;;;;;;16.01;64.33;101903.66;5003449;28;20079;-74
2022/06/04 07:57:53;;;;;;;12.43;7.22;;;;;;;16.35;64.59;101900.09;5006826;28;20045;-73
2022/06/04 08:00:23;;;;;;;12.43;6.95;;;;;;;16.57;63.78;101900.13;5006037;28;20117;-74
2022/06/04 08:02:49;;;;;;;15.20;7.07;;;;;;;16.63;61.39;101907.00;5000491;28;20069;-74
2022/06/04 08:05:14;;;;;;;10.60;6.95;;;;;;;16.58;61.39;101905.50;5001857;28;20045;-72
2022/06/04 08:07:41;;;;;;;12.18;6.70;;;;;;;16.54;61.28;101906.72;5006046;28;20092;-73
2022/06/04 08:10:08;;;;;;;10.77;6.55;;;;;;;16.53;61.58;101907.75;5002097;28;20042;-73
2022/06/04 08:12:35;;;;;;;12.52;6.68;;;;;;;16.57;61.51;101905.63;5005831;28;20041;-74
2022/06/04 08:15:04;;;;;;;9.50;6.97;;;;;;;16.47;61.16;101902.75;4985848;28;20061;-71
2022/06/04 08:17:31;;;;;;;13.82;7.65;;;;;;;16.39;61.07;101909.84;5002081;28;20526;-73
2022/06/04 08:19:57;;;;;;;14.27;7.13;;;;;;;16.33;62.07;101898.38;5003160;28;20115;-72
2022/06/04 08:22:23;;;;;;;11.60;7.47;;;;;;;16.27;61.75;101897.97;4988621;28;20576;-73
2022/06/04 08:24:48;;;;;;;11.60;7.57;;;;;;;16.12;62.25;101893.69;5004755;28;20496;-73
2022/06/04 08:27:14;;;;;;;13.23;7.28;;;;;;;16.08;62.41;101888.44;5008498;28;20037;-76
2022/06/04 08:29:40;;;;;;;12.55;7.63;;;;;;;16.05;63.08;101890.56;5010568;28;20457;-75
2022/06/04 08:32:05;;;;;;;10.95;7.00;;;;;;;16.23;64.28;101886.38;5008826;28;20081;-72
2022/06/04 08:34:32;;;;;;;10.13;7.30;;;;;;;16.47;64.46;101879.91;5004716;28;20137;-76
2022/06/04 08:36:59;;;;;;;13.38;6.75;;;;;;;16.56;62.09;101874.53;5010135;28;20037;-75
2022/06/04 08:39:25;;;;;;;9.63;7.30;;;;;;;16.57;62.08;101875.41;5005783;28;20033;-74
2022/06/04 08:42:05;;;;;;;9.95;7.38;;;;;;;16.75;61.11;101884.06;5008453;28;20037;-75
2022/06/04 08:44:37;;;;;;;11.48;7.18;;;;;;;16.58;61.14;101877.16;5008547;28;20048;-73
2022/06/04 08:47:15;;;;;;;9.30;6.72;;;;;;;16.62;62.21;101878.66;5010321;28;20045;-75
2022/06/04 08:49:48;;;;;;;11.25;7.43;;;;;;;16.77;61.80;101891.16;5006780;28;20034;-73
2022/06/04 08:52:19;;;;;;;13.45;8.45;;;;;;;16.96;59.54;101885.03;5011154;28;20437;-74
2022/06/04 08:58:06;;;;;;;11.75;7.55;;;;;;;17.22;60.01;101901.25;5010504;28;20062;-74
2022/06/04 09:00:38;;;;;;;15.43;7.65;;;;;;;17.16;60.32;101913.63;5005572;28;20046;-74
2022/06/04 09:03:28;;;;;;;12.38;7.25;;;;;;;17.26;60.25;101913.72;5002402;28;20045;-71
2022/06/04 09:05:58;;;;;;;12.30;7.70;;;;;;;17.25;60.25;101909.22;4990151;28;20040;-76
2022/06/04 09:08:32;;;;;;;11.02;8.63;;;;;;;17.15;59.67;101909.09;5007602;28;20221;-77
2022/06/04 09:11:01;;;;;;;13.75;8.07;;;;;;;17.23;60.04;101894.72;4985303;28;20042;-74
2022/06/04 09:13:36;;;;;;;10.95;8.00;;;;;;;17.56;60.17;101894.63;5008238;28;20058;-70
2022/06/04 09:16:32;;;;;;;11.20;8.13;;;;;;;17.91;58.16;101907.28;5002748;28;20045;-74
2022/06/04 09:19:00;;;;;;;10.98;7.40;;;;;;;17.87;58.95;101907.69;4993714;28;20069;-73
2022/06/04 09:21:35;;;;;;;11.52;7.90;;;;;;;18.33;60.59;101908.16;5006798;28;20085;-74
2022/06/04 09:24:00;;;;;;;13.07;8.25;;;;;;;18.44;56.11;101898.94;5002358;28;20053;-73
2022/06/04 09:26:38;;;;;;;12.73;8.30;;;;;;;18.72;56.89;101902.88;5005173;28;20026;-74
2022/06/04 09:29:29;;;;;;;14.70;8.60;;;;;;;18.97;55.38;101898.75;4989502;28;20500;-76
2022/06/04 09:32:11;;;;;;;10.80;7.38;;;;;;;18.87;55.06;101892.34;4991811;28;20077;-74
2022/06/04 09:34:42;;;;;;;15.32;8.23;;;;;;;19.25;56.20;101896.22;4999097;28;20042;-76
2022/06/04 09:37:10;;;;;;;11.88;8.25;;;;;;;19.38;55.11;101907.88;5009443;28;20049;-75
2022/06/04 09:39:42;;;;;;;14.38;7.72;;;;;;;20.04;54.57;101905.31;4999388;28;20033;-75
2022/06/04 09:42:13;;;;;;;10.77;8.68;;;;;;;20.15;53.02;101911.72;5006440;28;20088;-74
2022/06/04 09:45:02;;;;;;;11.90;8.18;;;;;;;20.18;54.12;101912.25;5008033;28;20041;-74
2022/06/04 09:47:40;;;;;;;10.63;8.02;;;;;;;20.02;52.41;101907.34;4996037;28;20070;-73
2022/06/04 09:50:21;;;;;;;13.05;8.40;;;;;;;20.55;54.05;101905.97;5006697;28;20160;-74
2022/06/04 09:53:00;;;;;;;11.57;8.40;;;;;;;20.80;50.83;101901.66;5006135;28;20458;-69
2022/06/04 09:55:27;;;;;;;12.98;7.95;;;;;;;20.83;49.51;101895.81;5003844;28;20150;-73
2022/06/04 09:58:02;;;;;;;14.25;8.75;;;;;;;20.56;51.32;101908.59;4990147;28;20152;-71
2022/06/04 10:00:33;;;;;;;11.48;8.13;;;;;;;20.68;50.37;101903.75;5008432;28;20033;-73
2022/06/04 10:03:12;;;;;;;14.85;8.40;;;;;;;20.70;49.35;101892.50;5004356;28;20155;-77
2022/06/04 10:05:55;;;;;;;11.65;8.05;;;;;;;20.94;50.72;101903.94;5000435;28;20041;-72
2022/06/04 10:08:23;;;;;;;13.90;8.55;;;;;;;20.92;52.09;101902.31;5006390;28;20065;-74
2022/06/04 10:10:49;;;;;;;12.27;8.60;;;;;;;21.28;52.95;101911.59;5004132;28;20061;-75
2022/06/04 10:16:15;;;;;;;23.13;8.57;;;;;;;21.74;52.18;101915.25;4983364;28;20038;-75
2022/06/04 10:19:14;;;;;;;13.80;8.05;;;;;;;22.04;49.01;101919.50;4998652;28;20125;-75
2022/06/04 10:21:42;;;;;;;12.80;8.52;;;;;;;21.97;50.31;101918.41;5008224;28;20033;-72
2022/06/04 10:24:22;;;;;;;13.60;9.73;;;;;;;21.83;48.14;101917.94;5006175;28;20041;-69
2022/06/04 10:27:25;;;;;;;12.93;7.80;;;;;;;21.96;50.64;101908.34;5003556;28;20044;-73
2022/06/04 10:30:01;;;;;;;13.20;7.25;;;;;;;22.56;50.23;101914.03;5007491;28;20030;-72
2022/06/04 10:32:44;;;;;;;11.35;8.43;;;;;;;22.91;47.45;101910.28;4987641;28;20515;-74
2022/06/04 10:35:45;;;;;;;9.80;7.95;;;;;;;23.50;46.42;101913.09;4999939;28;20034;-75
2022/06/04 10:38:38;;;;;;;8.90;7.43;;;;;;;23.27;47.56;101915.63;5005483;28;20058;-74
2022/06/04 10:41:20;;;;;;;13.70;9.30;;;;;;;22.86;46.42;101921.00;5001621;28;20121;-72
2022/06/04 10:43:57;;;;;;;12.60;9.18;;;;;;;22.56;46.14;101923.22;5005889;28;20022;-76
2022/06/04 10:46:47;;;;;;;11.70;9.05;;;;;;;22.55;47.86;101912.31;4998250;28;20452;-74
2022/06/04 10:49:12;;;;;;;11.50;8.82;;;;;;;23.16;47.89;101912.13;4984974;28;20022;-75
2022/06/04 10:51:48;;;;;;;15.93;9.07;;;;;;;22.80;47.02;101916.97;5007700;28;20052;-76
2022/06/04 10:54:34;;;;;;;12.43;9.32;;;;;;;22.51;46.56;101922.84;5005414;28;20116;-75
2022/06/04 10:57:15;;;;;;;15.90;9.43;;;;;;;22.30;47.41;101922.38;5007013;28;20094;-74
2022/06/04 10:59:48;;;;;;;11.73;8.15;;;;;;;22.09;46.83;101920.75;5006243;28;20577;-76
2022/06/04 11:02:17;;;;;;;13.13;9.50;;;;;;;22.00;46.47;101926.41;5007447;28;20484;-73
2022/06/04 11:04:56;;;;;;;12.68;9.80;;;;;;;22.06;49.20;101923.00;5004014;28;20462;-72
2022/06/04 11:07:48;;;;;;;11.85;8.85;;;;;;;22.17;48.23;101924.69;5006277;28;20070;-72
2022/06/04 11:10:17;;;;;;;13.55;10.02;;;;;;;22.15;46.58;101922.09;5003360;28;20041;-73
2022/06/04 11:13:04;;;;;;;13.65;8.70;;;;;;;22.27;48.66;101931.00;4991070;28;20096;-73
2022/06/04 11:15:37;;;;;;;15.68;9.57;;;;;;;22.06;47.22;101918.34;4999391;28;20046;-72
2022/06/04 11:18:12;;;;;;;12.82;8.30;;;;;;;22.14;48.12;101921.19;4998965;28;20034;-73
2022/06/04 11:20:47;;;;;;;13.48;10.15;;;;;;;22.37;47.34;101921.53;4996528;28;20042;-74
2022/06/04 11:23:28;;;;;;;12.48;9.10;;;;;;;22.52;47.80;101926.50;5007060;28;20141;-74
2022/06/04 11:26:03;;;;;;;16.05;10.05;;;;;;;22.60;47.64;101918.22;5003830;28;20025;-75
2022/06/04 11:28:30;;;;;;;17.48;9.88;;;;;;;22.52;48.77;101921.84;5006647;28;20061;-71
2022/06/04 11:31:23;;;;;;;13.43;9.15;;;;;;;22.66;47.73;101920.34;5004705;28;20127;-73
2022/06/04 11:34:05;;;;;;;14.63;9.95;;;;;;;22.78;46.49;101929.28;4999911;28;20561;-74
2022/06/04 11:36:52;;;;;;;10.63;8.93;;;;;;;22.77;47.38;101922.84;4988736;28;20037;-72
2022/06/04 11:39:38;;;;;;;15.15;9.25;;;;;;;23.14;47.27;101917.00;4987983;28;20045;-72
2022/06/04 11:42:22;;;;;;;11.52;8.05;;;;;;;23.90;48.53;101917.91;4988550;28;20874;-75
2022/06/04 11:45:15;;;;;;;13.35;8.70;;;;;;;24.29;44.53;101906.94;5005576;28;20034;-72
2022/06/04 11:48:28;;;;;;;13.02;9.60;;;;;;;24.14;44.74;101903.13;5004398;28;20052;-75
2022/06/04 11:51:15;;;;;;;12.70;9.38;;;;;;;23.66;44.31;101904.84;4984141;28;20041;-72
2022/06/04 11:53:50;;;;;;;12.48;8.73;;;;;;;23.07;45.24;101903.94;4988901;28;20480;-73
2022/06/04 11:56:28;;;;;;;11.23;9.45;;;;;;;22.83;46.99;101899.13;5003822;28;20041;-74